createdAt,value
2023-05-04T04:15:46.395Z,100790.78
2023-05-04T04:18:54.661Z,100785.63
2023-05-04T04:22:06.178Z,100794.28
2023-05-04T04:25:17.521Z,100800.31
2023-05-04T04:28:25.208Z,100801.91
2023-05-04T04:31:36.908Z,100795.78
2023-05-04T04:34:44.876Z,100796.19
2023-05-04T04:37:55.685Z,100796.47
2023-05-04T04:41:05.075Z,100796.56
2023-05-04T04:44:14.227Z,100804.31
2023-05-04T04:47:24.090Z,100797.91
2023-05-04T04:50:39.534Z,100800.03
2023-05-04T04:53:53.558Z,100804.62
2023-05-04T04:57:01.891Z,100816.37
2023-05-04T05:00:11.194Z,100811.69
2023-05-04T05:03:21.420Z,100816.59
2023-05-04T05:06:27.049Z,100806.00
2023-05-04T05:09:32.922Z,100805.34
2023-05-04T05:12:37.968Z,100803.66
2023-05-04T05:15:44.048Z,100802.31
2023-05-04T05:18:49.341Z,100809.69
2023-05-04T05:21:57.880Z,100817.34
2023-05-04T05:25:07.869Z,100821.72
2023-05-04T05:28:18.642Z,100814.25
2023-05-04T05:31:23.644Z,100818.91
2023-05-04T05:34:28.968Z,100824.25
2023-05-04T05:37:33.343Z,100825.53
2023-05-04T05:40:42.754Z,100815.28
2023-05-04T05:43:50.614Z,100817.03
2023-05-04T05:46:57.946Z,100819.50
2023-05-04T05:50:08.009Z,100826.28
2023-05-04T05:53:17.119Z,100829.38
2023-05-04T05:56:23.641Z,100834.00
2023-05-04T05:59:30.317Z,100836.19
2023-05-04T06:02:35.435Z,100829.78
2023-05-04T06:05:39.935Z,100840.47
2023-05-04T06:08:45.529Z,100833.84
2023-05-04T06:11:54.756Z,100826.66
2023-05-04T06:14:59.087Z,100831.56
2023-05-04T06:18:03.517Z,100832.66
2023-05-04T06:21:07.000Z,100838.25
2023-05-04T06:24:10.529Z,100845.62
2023-05-04T06:27:13.456Z,100851.03
2023-05-04T06:30:16.737Z,100857.13
2023-05-04T06:33:20.017Z,100855.69
2023-05-04T06:36:26.260Z,100865.75
2023-05-04T06:39:29.586Z,100855.75
2023-05-04T06:42:35.419Z,100847.25
2023-05-04T06:45:41.055Z,100852.00
2023-05-04T06:48:48.320Z,100854.28
2023-05-04T06:51:51.771Z,100846.78
2023-05-04T06:54:57.267Z,100853.50
2023-05-04T06:58:03.968Z,100862.25
2023-05-04T07:01:11.335Z,100858.19
2023-05-04T07:04:18.799Z,100857.09
2023-05-04T07:07:25.645Z,100858.56
2023-05-04T07:10:31.723Z,100861.03
2023-05-04T07:13:40.413Z,100859.41
2023-05-04T07:16:44.521Z,100855.06
2023-05-04T07:19:56.565Z,100850.34
2023-05-04T07:23:01.735Z,100852.22
2023-05-04T07:26:08.669Z,100849.25
2023-05-04T07:29:12.959Z,100848.78
2023-05-04T07:32:18.300Z,100849.56
2023-05-04T07:35:23.768Z,100847.47
2023-05-04T07:38:31.692Z,100851.38
2023-05-04T07:41:38.814Z,100862.72
2023-05-04T07:44:47.533Z,100857.47
2023-05-04T07:47:53.651Z,100854.88
2023-05-04T07:51:03.270Z,100854.97
2023-05-04T07:54:10.944Z,100851.28
2023-05-04T07:57:20.287Z,100850.47
2023-05-04T08:00:25.729Z,100857.09
2023-05-04T08:03:33.135Z,100849.16
2023-05-04T08:06:40.667Z,100853.19
2023-05-04T08:09:47.799Z,100860.72
2023-05-04T08:12:53.113Z,100859.97
2023-05-04T08:16:03.364Z,100866.25
2023-05-04T08:19:09.498Z,100857.16
2023-05-04T08:22:17.812Z,100860.28
2023-05-04T08:25:25.884Z,100864.66
2023-05-04T08:28:36.618Z,100867.41
2023-05-04T08:31:44.222Z,100861.44
2023-05-04T08:34:53.494Z,100865.25
2023-05-04T08:38:00.217Z,100867.81
2023-05-04T08:41:11.937Z,100874.56
2023-05-04T08:44:19.121Z,100883.81
2023-05-04T08:47:24.238Z,100876.59
2023-05-04T08:50:32.051Z,100876.69
2023-05-04T08:53:42.062Z,100868.75
2023-05-04T08:56:52.752Z,100877.47
2023-05-04T09:00:01.856Z,100871.25
2023-05-04T09:03:15.859Z,100867.59
2023-05-04T09:06:22.710Z,100865.38
2023-05-04T09:09:30.953Z,100868.22
2023-05-04T09:12:40.959Z,100864.94
2023-05-04T09:15:56.221Z,100872.22
2023-05-04T09:19:04.898Z,100866.78
2023-05-04T09:22:19.164Z,100863.16
2023-05-04T09:25:27.062Z,100859.47
2023-05-04T09:28:39.635Z,100867.63
2023-05-04T09:31:51.707Z,100866.25
2023-05-04T09:34:56.760Z,100866.84
2023-05-04T09:38:01.949Z,100860.37
2023-05-04T09:41:06.595Z,100849.34
2023-05-04T09:44:28.225Z,100855.41
2023-05-04T09:47:43.340Z,100857.44
2023-05-04T09:50:51.959Z,100857.84
2023-05-04T09:54:04.984Z,100858.38
2023-05-04T09:57:18.442Z,100846.91
2023-05-04T10:00:26.400Z,100847.88
2023-05-04T10:03:33.171Z,100850.22
2023-05-04T10:06:38.111Z,100842.94
2023-05-04T10:09:42.259Z,100835.81
2023-05-04T10:12:50.230Z,100839.19
2023-05-04T10:16:25.245Z,100835.75
2023-05-04T10:20:02.251Z,100837.19
2023-05-04T10:23:29.927Z,100830.28
2023-05-04T10:27:01.504Z,100826.41
2023-05-04T10:30:08.988Z,100817.88
2023-05-04T10:33:14.174Z,100817.94
2023-05-04T10:36:19.194Z,100814.69
2023-05-04T10:39:28.439Z,100816.47
2023-05-04T10:42:43.683Z,100815.06
2023-05-04T10:45:47.126Z,100804.25
2023-05-04T10:48:52.138Z,100807.91
2023-05-04T10:52:13.389Z,100800.56
2023-05-04T10:55:19.494Z,100795.25
2023-05-04T10:58:29.392Z,100794.13
2023-05-04T11:01:44.022Z,100790.50
2023-05-04T11:04:47.341Z,100782.22
2023-05-04T11:07:54.004Z,100774.56
2023-05-04T11:11:08.220Z,100770.16
2023-05-04T11:14:28.742Z,100765.09
2023-05-04T11:17:34.952Z,100770.34
2023-05-04T11:20:42.938Z,100756.25
2023-05-04T11:23:53.974Z,100751.84
2023-05-04T11:26:57.989Z,100752.97
2023-05-04T11:30:05.077Z,100747.19
2023-05-04T11:33:14.874Z,100740.59
2023-05-04T11:36:20.290Z,100736.09
2023-05-04T11:39:27.291Z,100735.94
2023-05-04T11:42:32.945Z,100730.34
2023-05-04T11:45:41.391Z,100730.81
2023-05-04T11:48:46.231Z,100729.63
2023-05-04T11:51:50.615Z,100725.88
2023-05-04T11:54:59.548Z,100719.91
2023-05-04T11:58:10.104Z,100721.44
2023-05-04T12:01:13.911Z,100713.78
2023-05-04T12:04:20.155Z,100720.28
2023-05-04T12:07:25.215Z,100713.66
2023-05-04T12:10:35.133Z,100719.16
2023-05-04T12:13:38.064Z,100709.69
2023-05-04T12:16:43.273Z,100707.19
2023-05-04T12:19:57.441Z,100704.06
2023-05-04T12:23:06.899Z,100703.25
2023-05-04T12:26:12.110Z,100703.16
2023-05-04T12:29:17.594Z,100699.16
2023-05-04T12:32:21.723Z,100689.53
2023-05-04T12:35:26.512Z,100690.12
2023-05-04T12:38:30.629Z,100694.31
2023-05-04T12:41:35.829Z,100689.72
2023-05-04T12:44:39.293Z,100682.13
2023-05-04T12:47:42.496Z,100689.19
2023-05-04T12:50:50.355Z,100684.63
2023-05-04T12:53:56.512Z,100679.34
2023-05-04T12:57:00.910Z,100687.53
2023-05-04T13:00:10.558Z,100672.94
2023-05-04T13:03:19.001Z,100672.62
2023-05-04T13:06:25.380Z,100677.66
2023-05-04T13:09:33.256Z,100663.59
2023-05-04T13:12:44.182Z,100674.53
2023-05-04T13:15:52.592Z,100665.94
2023-05-04T13:18:59.848Z,100667.31
2023-05-04T13:22:04.139Z,100662.06
2023-05-04T13:25:11.887Z,100661.56
2023-05-04T13:28:16.286Z,100654.75
2023-05-04T13:31:21.656Z,100651.56
2023-05-04T13:34:27.246Z,100649.88
2023-05-04T13:37:31.970Z,100643.34
2023-05-04T13:40:41.022Z,100641.22
2023-05-04T13:43:46.688Z,100640.22
2023-05-04T13:46:53.440Z,100631.22
2023-05-04T13:50:02.339Z,100629.53
2023-05-04T13:53:12.138Z,100633.78
2023-05-04T13:56:19.823Z,100632.38
2023-05-04T13:59:27.119Z,100633.03
2023-05-04T14:02:37.619Z,100633.53
2023-05-04T14:05:46.741Z,100629.56
2023-05-04T14:08:54.432Z,100622.12
2023-05-04T14:12:01.742Z,100628.41
2023-05-04T14:15:08.774Z,100627.06
2023-05-04T14:18:17.158Z,100623.41
2023-05-04T14:21:22.775Z,100622.91
2023-05-04T14:24:28.679Z,100616.06
2023-05-04T14:27:37.239Z,100620.72
2023-05-04T14:30:44.684Z,100622.19
2023-05-04T14:33:50.657Z,100628.38
2023-05-04T14:36:58.174Z,100622.28
2023-05-04T14:40:05.213Z,100617.16
2023-05-04T14:43:13.506Z,100611.66
2023-05-04T14:46:21.048Z,100621.28
2023-05-04T14:52:42.286Z,100613.34
2023-05-04T14:55:53.020Z,100604.41
2023-05-04T14:59:00.264Z,100609.41
2023-05-04T15:02:09.569Z,100608.53
2023-05-04T15:05:16.481Z,100613.00
2023-05-04T15:08:24.635Z,100607.41
2023-05-04T15:11:30.368Z,100604.06
2023-05-04T15:14:40.435Z,100608.72
2023-05-04T15:17:46.466Z,100606.31
2023-05-04T15:20:55.270Z,100598.69
2023-05-04T15:24:06.634Z,100598.75
2023-05-04T15:27:12.620Z,100603.56
2023-05-04T15:30:21.040Z,100598.44
2023-05-04T15:33:29.540Z,100602.69
2023-05-04T15:36:39.109Z,100595.75
2023-05-04T15:39:49.077Z,100601.31
2023-05-04T15:42:57.507Z,100604.56
2023-05-04T15:46:06.752Z,100602.84
2023-05-04T15:49:13.885Z,100605.56
2023-05-04T15:52:22.197Z,100604.53
2023-05-04T15:55:29.115Z,100597.50
2023-05-04T15:58:37.360Z,100589.53
